sensor_id;sensor_type;location;lat;lon;timestamp;P1;P2;P0
70520;PMS5003;58442;52.716;23.560;2022-12-07T00:01:26;3;3;2
70520;PMS5003;58442;52.716;23.560;2022-12-07T00:03:29;3;2;2
70520;PMS5003;58442;52.716;23.560;2022-12-07T00:05:30;1;1;1
70520;PMS5003;58442;52.716;23.560;2022-12-07T00:07:31;2;2;1
70520;PMS5003;58442;52.716;23.560;2022-12-07T00:09:40;2;2;2
70520;PMS5003;58442;52.716;23.560;2022-12-07T00:11:42;2;2;2
70520;PMS5003;58442;52.716;23.560;2022-12-07T00:13:44;1;1;1
70520;PMS5003;58442;52.716;23.560;2022-12-07T00:15:46;2;2;2
70520;PMS5003;58442;52.716;23.560;2022-12-07T00:17:55;2;2;1
70520;PMS5003;58442;52.716;23.560;2022-12-07T00:19:56;2;2;1
70520;PMS5003;58442;52.716;23.560;2022-12-07T00:21:57;2;2;0
70520;PMS5003;58442;52.716;23.560;2022-12-07T00:23:58;1;1;1
70520;PMS5003;58442;52.716;23.560;2022-12-07T00:26:15;3;3;2
70520;PMS5003;58442;52.716;23.560;2022-12-07T00:28:20;2;2;2
70520;PMS5003;58442;52.716;23.560;2022-12-07T00:30:22;2;2;1
70520;PMS5003;58442;52.716;23.560;2022-12-07T00:32:24;3;3;2
70520;PMS5003;58442;52.716;23.560;2022-12-07T00:34:26;2;2;2
70520;PMS5003;58442;52.716;23.560;2022-12-07T00:36:27;4;4;3
70520;PMS5003;58442;52.716;23.560;2022-12-07T00:38:29;3;3;3
70520;PMS5003;58442;52.716;23.560;2022-12-07T00:40:31;1;1;1
70520;PMS5003;58442;52.716;23.560;2022-12-07T00:42:41;2;2;2
70520;PMS5003;58442;52.716;23.560;2022-12-07T00:44:42;4;4;1
70520;PMS5003;58442;52.716;23.560;2022-12-07T00:46:43;2;2;2
70520;PMS5003;58442;52.716;23.560;2022-12-07T00:48:46;4;4;3
70520;PMS5003;58442;52.716;23.560;2022-12-07T00:50:56;3;1;1
70520;PMS5003;58442;52.716;23.560;2022-12-07T00:52:57;1;1;1
70520;PMS5003;58442;52.716;23.560;2022-12-07T00:54:58;5;5;3
70520;PMS5003;58442;52.716;23.560;2022-12-07T00:56:59;3;3;2
70520;PMS5003;58442;52.716;23.560;2022-12-07T00:59:12;4;4;3
70520;PMS5003;58442;52.716;23.560;2022-12-07T01:01:17;2;2;1
70520;PMS5003;58442;52.716;23.560;2022-12-07T01:03:18;4;4;3
70520;PMS5003;58442;52.716;23.560;2022-12-07T01:05:19;4;4;2
70520;PMS5003;58442;52.716;23.560;2022-12-07T01:07:26;2;2;1
70520;PMS5003;58442;52.716;23.560;2022-12-07T01:09:27;3;3;2
70520;PMS5003;58442;52.716;23.560;2022-12-07T01:11:29;3;3;2
70520;PMS5003;58442;52.716;23.560;2022-12-07T01:13:30;5;5;3
70520;PMS5003;58442;52.716;23.560;2022-12-07T01:15:42;9;7;3
70520;PMS5003;58442;52.716;23.560;2022-12-07T01:17:44;3;3;2
70520;PMS5003;58442;52.716;23.560;2022-12-07T01:19:45;3;2;1
70520;PMS5003;58442;52.716;23.560;2022-12-07T01:21:46;2;1;1
70520;PMS5003;58442;52.716;23.560;2022-12-07T01:23:57;6;6;4
70520;PMS5003;58442;52.716;23.560;2022-12-07T01:25:59;2;2;2
70520;PMS5003;58442;52.716;23.560;2022-12-07T01:28:02;3;3;2
70520;PMS5003;58442;52.716;23.560;2022-12-07T01:30:04;4;4;2
70520;PMS5003;58442;52.716;23.560;2022-12-07T01:32:11;4;4;3
70520;PMS5003;58442;52.716;23.560;2022-12-07T01:34:12;7;7;4
70520;PMS5003;58442;52.716;23.560;2022-12-07T01:36:15;3;3;2
70520;PMS5003;58442;52.716;23.560;2022-12-07T01:38:22;4;4;3
70520;PMS5003;58442;52.716;23.560;2022-12-07T01:40:26;4;4;2
70520;PMS5003;58442;52.716;23.560;2022-12-07T01:42:27;5;5;3
70520;PMS5003;58442;52.716;23.560;2022-12-07T01:44:29;5;5;2
70520;PMS5003;58442;52.716;23.560;2022-12-07T01:46:32;5;5;3
70520;PMS5003;58442;52.716;23.560;2022-12-07T01:48:41;6;6;3
70520;PMS5003;58442;52.716;23.560;2022-12-07T01:50:44;4;4;3
70520;PMS5003;58442;52.716;23.560;2022-12-07T01:52:49;4;4;2
70520;PMS5003;58442;52.716;23.560;2022-12-07T01:54:54;8;8;4
70520;PMS5003;58442;52.716;23.560;2022-12-07T01:57:00;4;4;3
70520;PMS5003;58442;52.716;23.560;2022-12-07T01:59:03;9;9;4
70520;PMS5003;58442;52.716;23.560;2022-12-07T02:01:04;5;4;3
70520;PMS5003;58442;52.716;23.560;2022-12-07T02:05:23;5;5;3
70520;PMS5003;58442;52.716;23.560;2022-12-07T02:07:34;9;6;4
70520;PMS5003;58442;52.716;23.560;2022-12-07T02:09:38;4;4;3
70520;PMS5003;58442;52.716;23.560;2022-12-07T02:11:39;5;5;2
70520;PMS5003;58442;52.716;23.560;2022-12-07T02:13:42;3;3;1
70520;PMS5003;58442;52.716;23.560;2022-12-07T02:18:13;6;6;4
70520;PMS5003;58442;52.716;23.560;2022-12-07T02:20:35;5;5;3
70520;PMS5003;58442;52.716;23.560;2022-12-07T02:30:00;8;6;3
70520;PMS5003;58442;52.716;23.560;2022-12-07T02:32:12;4;4;2
70520;PMS5003;58442;52.716;23.560;2022-12-07T02:34:20;4;4;2
70520;PMS5003;58442;52.716;23.560;2022-12-07T02:36:30;2;2;1
70520;PMS5003;58442;52.716;23.560;2022-12-07T02:38:40;5;4;2
70520;PMS5003;58442;52.716;23.560;2022-12-07T02:43:08;6;6;2
70520;PMS5003;58442;52.716;23.560;2022-12-07T02:45:16;7;6;4
70520;PMS5003;58442;52.716;23.560;2022-12-07T02:47:20;5;5;4
70520;PMS5003;58442;52.716;23.560;2022-12-07T02:49:25;6;6;3
70520;PMS5003;58442;52.716;23.560;2022-12-07T02:51:32;7;7;4
70520;PMS5003;58442;52.716;23.560;2022-12-07T02:53:35;6;6;3
70520;PMS5003;58442;52.716;23.560;2022-12-07T02:55:38;5;5;3
70520;PMS5003;58442;52.716;23.560;2022-12-07T03:04:31;5;5;4
70520;PMS5003;58442;52.716;23.560;2022-12-07T03:06:51;6;6;4
70520;PMS5003;58442;52.716;23.560;2022-12-07T03:09:12;7;5;3
70520;PMS5003;58442;52.716;23.560;2022-12-07T03:11:34;5;5;2
70520;PMS5003;58442;52.716;23.560;2022-12-07T03:13:56;3;3;2
70520;PMS5003;58442;52.716;23.560;2022-12-07T03:16:05;4;4;2
70520;PMS5003;58442;52.716;23.560;2022-12-07T03:18:16;4;4;3
70520;PMS5003;58442;52.716;23.560;2022-12-07T03:20:24;4;4;3
70520;PMS5003;58442;52.716;23.560;2022-12-07T03:22:28;6;6;4
70520;PMS5003;58442;52.716;23.560;2022-12-07T03:24:45;4;4;3
70520;PMS5003;58442;52.716;23.560;2022-12-07T03:27:03;4;4;2
70520;PMS5003;58442;52.716;23.560;2022-12-07T03:29:10;7;7;4
70520;PMS5003;58442;52.716;23.560;2022-12-07T03:31:19;9;6;3
70520;PMS5003;58442;52.716;23.560;2022-12-07T03:33:26;6;6;4
70520;PMS5003;58442;52.716;23.560;2022-12-07T03:35:36;6;6;3
70520;PMS5003;58442;52.716;23.560;2022-12-07T03:37:45;6;6;4
70520;PMS5003;58442;52.716;23.560;2022-12-07T03:42:03;4;4;2
70520;PMS5003;58442;52.716;23.560;2022-12-07T03:44:07;4;4;2
70520;PMS5003;58442;52.716;23.560;2022-12-07T03:48:33;6;6;3
70520;PMS5003;58442;52.716;23.560;2022-12-07T03:50:52;6;6;4
70520;PMS5003;58442;52.716;23.560;2022-12-07T03:53:01;7;6;3
70520;PMS5003;58442;52.716;23.560;2022-12-07T03:57:20;4;4;2
70520;PMS5003;58442;52.716;23.560;2022-12-07T03:59:24;2;2;2
70520;PMS5003;58442;52.716;23.560;2022-12-07T04:01:34;5;5;3
70520;PMS5003;58442;52.716;23.560;2022-12-07T04:03:35;3;3;2
70520;PMS5003;58442;52.716;23.560;2022-12-07T04:05:36;8;8;3
70520;PMS5003;58442;52.716;23.560;2022-12-07T04:07:37;5;5;2
70520;PMS5003;58442;52.716;23.560;2022-12-07T04:09:49;6;6;3
70520;PMS5003;58442;52.716;23.560;2022-12-07T04:11:50;6;6;2
70520;PMS5003;58442;52.716;23.560;2022-12-07T04:13:51;6;6;4
70520;PMS5003;58442;52.716;23.560;2022-12-07T04:16:06;4;4;3
70520;PMS5003;58442;52.716;23.560;2022-12-07T04:18:08;5;5;3
70520;PMS5003;58442;52.716;23.560;2022-12-07T04:20:09;7;7;4
70520;PMS5003;58442;52.716;23.560;2022-12-07T04:22:11;7;7;3
70520;PMS5003;58442;52.716;23.560;2022-12-07T04:24:13;5;5;3
70520;PMS5003;58442;52.716;23.560;2022-12-07T04:26:19;6;6;4
70520;PMS5003;58442;52.716;23.560;2022-12-07T04:28:20;7;6;3
70520;PMS5003;58442;52.716;23.560;2022-12-07T04:30:21;7;7;3
70520;PMS5003;58442;52.716;23.560;2022-12-07T04:32:22;7;7;5
70520;PMS5003;58442;52.716;23.560;2022-12-07T04:34:34;6;6;3
70520;PMS5003;58442;52.716;23.560;2022-12-07T04:36:35;4;3;1
70520;PMS5003;58442;52.716;23.560;2022-12-07T04:38:36;5;4;3
70520;PMS5003;58442;52.716;23.560;2022-12-07T04:40:37;5;4;3
70520;PMS5003;58442;52.716;23.560;2022-12-07T04:42:38;8;7;4
70520;PMS5003;58442;52.716;23.560;2022-12-07T04:44:39;6;6;3
70520;PMS5003;58442;52.716;23.560;2022-12-07T04:46:40;6;5;2
70520;PMS5003;58442;52.716;23.560;2022-12-07T04:48:43;8;8;6
70520;PMS5003;58442;52.716;23.560;2022-12-07T04:50:44;10;9;3
70520;PMS5003;58442;52.716;23.560;2022-12-07T04:52:49;4;4;3
70520;PMS5003;58442;52.716;23.560;2022-12-07T04:54:50;7;6;3
70520;PMS5003;58442;52.716;23.560;2022-12-07T04:56:58;6;6;2
70520;PMS5003;58442;52.716;23.560;2022-12-07T04:58:59;9;9;5
70520;PMS5003;58442;52.716;23.560;2022-12-07T05:01:00;10;9;4
70520;PMS5003;58442;52.716;23.560;2022-12-07T05:03:01;10;8;3
70520;PMS5003;58442;52.716;23.560;2022-12-07T05:05:03;5;5;3
70520;PMS5003;58442;52.716;23.560;2022-12-07T05:07:04;8;8;5
70520;PMS5003;58442;52.716;23.560;2022-12-07T05:09:05;8;7;4
70520;PMS5003;58442;52.716;23.560;2022-12-07T05:11:09;6;6;4
70520;PMS5003;58442;52.716;23.560;2022-12-07T05:13:30;9;7;2
70520;PMS5003;58442;52.716;23.560;2022-12-07T05:15:32;7;7;5
70520;PMS5003;58442;52.716;23.560;2022-12-07T05:17:33;8;7;4
70520;PMS5003;58442;52.716;23.560;2022-12-07T05:19:34;11;11;5
70520;PMS5003;58442;52.716;23.560;2022-12-07T05:21:45;4;4;3
70520;PMS5003;58442;52.716;23.560;2022-12-07T05:23:46;7;7;4
70520;PMS5003;58442;52.716;23.560;2022-12-07T05:25:47;7;6;3
70520;PMS5003;58442;52.716;23.560;2022-12-07T05:27:48;8;8;4
70520;PMS5003;58442;52.716;23.560;2022-12-07T05:30:00;12;10;5
70520;PMS5003;58442;52.716;23.560;2022-12-07T05:32:01;9;9;5
70520;PMS5003;58442;52.716;23.560;2022-12-07T05:34:02;10;9;5
70520;PMS5003;58442;52.716;23.560;2022-12-07T05:36:03;9;9;4
70520;PMS5003;58442;52.716;23.560;2022-12-07T05:38:15;14;12;7
70520;PMS5003;58442;52.716;23.560;2022-12-07T05:40:16;8;8;5
70520;PMS5003;58442;52.716;23.560;2022-12-07T05:42:19;9;9;4
70520;PMS5003;58442;52.716;23.560;2022-12-07T05:44:20;12;12;5
70520;PMS5003;58442;52.716;23.560;2022-12-07T05:46:30;8;8;5
70520;PMS5003;58442;52.716;23.560;2022-12-07T05:48:31;8;7;5
70520;PMS5003;58442;52.716;23.560;2022-12-07T05:50:32;10;10;5
70520;PMS5003;58442;52.716;23.560;2022-12-07T05:52:33;10;8;6
70520;PMS5003;58442;52.716;23.560;2022-12-07T05:54:45;8;8;4
70520;PMS5003;58442;52.716;23.560;2022-12-07T05:56:46;14;13;6
70520;PMS5003;58442;52.716;23.560;2022-12-07T05:58:47;13;12;5
70520;PMS5003;58442;52.716;23.560;2022-12-07T06:01:00;10;10;6
70520;PMS5003;58442;52.716;23.560;2022-12-07T06:03:01;10;10;6
70520;PMS5003;58442;52.716;23.560;2022-12-07T06:05:02;12;12;7
70520;PMS5003;58442;52.716;23.560;2022-12-07T06:07:04;13;9;5
70520;PMS5003;58442;52.716;23.560;2022-12-07T06:09:05;12;12;6
70520;PMS5003;58442;52.716;23.560;2022-12-07T06:11:15;9;9;6
70520;PMS5003;58442;52.716;23.560;2022-12-07T06:13:36;12;11;5
70520;PMS5003;58442;52.716;23.560;2022-12-07T06:15:37;10;9;5
70520;PMS5003;58442;52.716;23.560;2022-12-07T06:17:38;7;7;3
70520;PMS5003;58442;52.716;23.560;2022-12-07T06:19:40;11;11;5
70520;PMS5003;58442;52.716;23.560;2022-12-07T06:21:51;9;9;5
70520;PMS5003;58442;52.716;23.560;2022-12-07T06:23:53;9;8;6
70520;PMS5003;58442;52.716;23.560;2022-12-07T06:25:54;18;18;6
70520;PMS5003;58442;52.716;23.560;2022-12-07T06:27:56;13;9;5
70520;PMS5003;58442;52.716;23.560;2022-12-07T06:30:06;9;9;7
70520;PMS5003;58442;52.716;23.560;2022-12-07T06:32:09;13;13;7
70520;PMS5003;58442;52.716;23.560;2022-12-07T06:34:12;14;13;7
70520;PMS5003;58442;52.716;23.560;2022-12-07T06:36:16;10;10;5
70520;PMS5003;58442;52.716;23.560;2022-12-07T06:38:21;17;13;6
70520;PMS5003;58442;52.716;23.560;2022-12-07T06:40:22;12;12;7
70520;PMS5003;58442;52.716;23.560;2022-12-07T06:42:23;15;14;7
70520;PMS5003;58442;52.716;23.560;2022-12-07T06:44:25;16;14;6
70520;PMS5003;58442;52.716;23.560;2022-12-07T06:46:36;13;13;7
70520;PMS5003;58442;52.716;23.560;2022-12-07T06:48:37;13;11;6
70520;PMS5003;58442;52.716;23.560;2022-12-07T06:50:38;18;15;9
70520;PMS5003;58442;52.716;23.560;2022-12-07T06:52:39;14;12;7
70520;PMS5003;58442;52.716;23.560;2022-12-07T06:54:40;12;10;7
70520;PMS5003;58442;52.716;23.560;2022-12-07T06:56:42;11;11;8
70520;PMS5003;58442;52.716;23.560;2022-12-07T06:58:43;14;14;5
70520;PMS5003;58442;52.716;23.560;2022-12-07T07:00:47;15;13;6
70520;PMS5003;58442;52.716;23.560;2022-12-07T07:02:50;10;10;6
70520;PMS5003;58442;52.716;23.560;2022-12-07T07:04:51;8;8;5
70520;PMS5003;58442;52.716;23.560;2022-12-07T07:06:52;13;13;7
70520;PMS5003;58442;52.716;23.560;2022-12-07T07:09:01;10;10;6
70520;PMS5003;58442;52.716;23.560;2022-12-07T07:11:02;16;14;7
70520;PMS5003;58442;52.716;23.560;2022-12-07T07:13:04;15;13;8
70520;PMS5003;58442;52.716;23.560;2022-12-07T07:15:06;12;11;6
70520;PMS5003;58442;52.716;23.560;2022-12-07T07:17:16;15;14;9
70520;PMS5003;58442;52.716;23.560;2022-12-07T07:19:17;8;8;6
70520;PMS5003;58442;52.716;23.560;2022-12-07T07:21:18;12;12;9
70520;PMS5003;58442;52.716;23.560;2022-12-07T07:23:19;20;18;8
70520;PMS5003;58442;52.716;23.560;2022-12-07T07:25:31;13;11;4
70520;PMS5003;58442;52.716;23.560;2022-12-07T07:27:32;15;14;7
70520;PMS5003;58442;52.716;23.560;2022-12-07T07:29:33;16;15;8
70520;PMS5003;58442;52.716;23.560;2022-12-07T07:31:34;11;11;7
70520;PMS5003;58442;52.716;23.560;2022-12-07T07:33:46;12;12;8
70520;PMS5003;58442;52.716;23.560;2022-12-07T07:35:47;13;12;7
70520;PMS5003;58442;52.716;23.560;2022-12-07T07:37:48;10;10;6
70520;PMS5003;58442;52.716;23.560;2022-12-07T07:39:49;21;16;8
70520;PMS5003;58442;52.716;23.560;2022-12-07T07:42:01;10;10;6
70520;PMS5003;58442;52.716;23.560;2022-12-07T07:44:02;14;14;6
70520;PMS5003;58442;52.716;23.560;2022-12-07T07:46:03;10;10;6
70520;PMS5003;58442;52.716;23.560;2022-12-07T07:48:04;16;16;6
70520;PMS5003;58442;52.716;23.560;2022-12-07T07:50:16;15;15;9
70520;PMS5003;58442;52.716;23.560;2022-12-07T07:52:18;15;13;6
70520;PMS5003;58442;52.716;23.560;2022-12-07T07:54:19;9;9;6
70520;PMS5003;58442;52.716;23.560;2022-12-07T07:56:20;13;13;6
70520;PMS5003;58442;52.716;23.560;2022-12-07T07:58:31;16;16;7
70520;PMS5003;58442;52.716;23.560;2022-12-07T08:00:32;7;6;4
70520;PMS5003;58442;52.716;23.560;2022-12-07T08:02:33;11;11;6
70520;PMS5003;58442;52.716;23.560;2022-12-07T08:04:35;9;9;6
70520;PMS5003;58442;52.716;23.560;2022-12-07T08:06:46;12;12;8
70520;PMS5003;58442;52.716;23.560;2022-12-07T08:08:47;12;12;9
70520;PMS5003;58442;52.716;23.560;2022-12-07T08:10:48;13;13;6
70520;PMS5003;58442;52.716;23.560;2022-12-07T08:12:50;12;11;7
70520;PMS5003;58442;52.716;23.560;2022-12-07T08:15:04;9;9;5
70520;PMS5003;58442;52.716;23.560;2022-12-07T08:17:05;11;11;5
70520;PMS5003;58442;52.716;23.560;2022-12-07T08:19:06;11;9;5
70520;PMS5003;58442;52.716;23.560;2022-12-07T08:21:09;10;10;6
70520;PMS5003;58442;52.716;23.560;2022-12-07T08:23:16;10;10;6
70520;PMS5003;58442;52.716;23.560;2022-12-07T08:25:17;11;11;6
70520;PMS5003;58442;52.716;23.560;2022-12-07T08:27:19;11;11;8
70520;PMS5003;58442;52.716;23.560;2022-12-07T08:29:20;11;11;8
70520;PMS5003;58442;52.716;23.560;2022-12-07T08:31:31;13;11;7
70520;PMS5003;58442;52.716;23.560;2022-12-07T08:33:32;11;11;8
70520;PMS5003;58442;52.716;23.560;2022-12-07T08:35:34;8;8;5
70520;PMS5003;58442;52.716;23.560;2022-12-07T08:37:35;17;15;8
70520;PMS5003;58442;52.716;23.560;2022-12-07T08:39:46;9;9;7
70520;PMS5003;58442;52.716;23.560;2022-12-07T08:41:47;13;13;7
70520;PMS5003;58442;52.716;23.560;2022-12-07T08:43:48;13;12;8
70520;PMS5003;58442;52.716;23.560;2022-12-07T08:45:52;10;10;7
70520;PMS5003;58442;52.716;23.560;2022-12-07T08:48:08;12;12;7
70520;PMS5003;58442;52.716;23.560;2022-12-07T08:50:12;11;9;6
70520;PMS5003;58442;52.716;23.560;2022-12-07T08:52:13;11;11;6
70520;PMS5003;58442;52.716;23.560;2022-12-07T08:54:15;13;11;6
70520;PMS5003;58442;52.716;23.560;2022-12-07T08:56:19;10;10;8
70520;PMS5003;58442;52.716;23.560;2022-12-07T08:58:21;10;10;6
70520;PMS5003;58442;52.716;23.560;2022-12-07T09:00:23;10;10;8
70520;PMS5003;58442;52.716;23.560;2022-12-07T09:02:24;8;8;6
70520;PMS5003;58442;52.716;23.560;2022-12-07T09:04:32;10;10;6
70520;PMS5003;58442;52.716;23.560;2022-12-07T09:06:34;10;9;6
70520;PMS5003;58442;52.716;23.560;2022-12-07T09:08:39;10;9;5
70520;PMS5003;58442;52.716;23.560;2022-12-07T09:10:44;11;11;6
70520;PMS5003;58442;52.716;23.560;2022-12-07T09:12:48;17;16;11
70520;PMS5003;58442;52.716;23.560;2022-12-07T09:14:49;20;20;13
70520;PMS5003;58442;52.716;23.560;2022-12-07T09:16:50;4;3;1
70520;PMS5003;58442;52.716;23.560;2022-12-07T09:18:51;10;10;7
70520;PMS5003;58442;52.716;23.560;2022-12-07T09:21:03;12;12;7
70520;PMS5003;58442;52.716;23.560;2022-12-07T09:23:05;16;16;12
70520;PMS5003;58442;52.716;23.560;2022-12-07T09:25:07;9;9;6
70520;PMS5003;58442;52.716;23.560;2022-12-07T09:27:08;8;8;6
70520;PMS5003;58442;52.716;23.560;2022-12-07T09:30:45;8;7;6
70520;PMS5003;58442;52.716;23.560;2022-12-07T09:32:47;14;12;7
70520;PMS5003;58442;52.716;23.560;2022-12-07T09:34:48;11;11;7
70520;PMS5003;58442;52.716;23.560;2022-12-07T09:36:55;11;11;7
70520;PMS5003;58442;52.716;23.560;2022-12-07T09:38:56;12;12;7
70520;PMS5003;58442;52.716;23.560;2022-12-07T09:40:57;12;12;6
70520;PMS5003;58442;52.716;23.560;2022-12-07T09:43:03;10;10;8
70520;PMS5003;58442;52.716;23.560;2022-12-07T09:45:17;11;11;7
70520;PMS5003;58442;52.716;23.560;2022-12-07T09:47:32;15;15;9
70520;PMS5003;58442;52.716;23.560;2022-12-07T09:49:34;9;9;7
70520;PMS5003;58442;52.716;23.560;2022-12-07T09:51:35;7;7;5
70520;PMS5003;58442;52.716;23.560;2022-12-07T09:53:37;11;11;7
70520;PMS5003;58442;52.716;23.560;2022-12-07T09:55:46;12;12;8
70520;PMS5003;58442;52.716;23.560;2022-12-07T09:57:48;9;9;6
70520;PMS5003;58442;52.716;23.560;2022-12-07T10:00:00;9;8;4
70520;PMS5003;58442;52.716;23.560;2022-12-07T10:02:19;15;15;10
70520;PMS5003;58442;52.716;23.560;2022-12-07T10:04:17;8;8;6
70520;PMS5003;58442;52.716;23.560;2022-12-07T10:06:23;9;9;6
70520;PMS5003;58442;52.716;23.560;2022-12-07T10:08:24;10;10;7
70520;PMS5003;58442;52.716;23.560;2022-12-07T10:10:26;9;9;6
70520;PMS5003;58442;52.716;23.560;2022-12-07T10:12:31;11;11;6
70520;PMS5003;58442;52.716;23.560;2022-12-07T10:16:59;8;8;6
70520;PMS5003;58442;52.716;23.560;2022-12-07T10:21:14;18;17;10
70520;PMS5003;58442;52.716;23.560;2022-12-07T10:23:17;12;12;8
70520;PMS5003;58442;52.716;23.560;2022-12-07T10:25:19;12;12;8
70520;PMS5003;58442;52.716;23.560;2022-12-07T10:27:26;14;14;9
70520;PMS5003;58442;52.716;23.560;2022-12-07T10:29:36;8;8;6
70520;PMS5003;58442;52.716;23.560;2022-12-07T10:31:39;9;9;5
70520;PMS5003;58442;52.716;23.560;2022-12-07T10:35:57;9;8;6
70520;PMS5003;58442;52.716;23.560;2022-12-07T10:37:59;9;9;7
70520;PMS5003;58442;52.716;23.560;2022-12-07T10:40:00;55;45;25
70520;PMS5003;58442;52.716;23.560;2022-12-07T10:42:02;50;33;17
70520;PMS5003;58442;52.716;23.560;2022-12-07T10:44:19;28;26;15
70520;PMS5003;58442;52.716;23.560;2022-12-07T10:48:43;9;9;4
70520;PMS5003;58442;52.716;23.560;2022-12-07T10:59:48;12;12;6
70520;PMS5003;58442;52.716;23.560;2022-12-07T11:04:31;29;22;11
70520;PMS5003;58442;52.716;23.560;2022-12-07T11:06:37;42;29;16
70520;PMS5003;58442;52.716;23.560;2022-12-07T11:13:23;14;12;11
70520;PMS5003;58442;52.716;23.560;2022-12-07T11:17:48;31;26;14
70520;PMS5003;58442;52.716;23.560;2022-12-07T11:29:29;15;15;9
70520;PMS5003;58442;52.716;23.560;2022-12-07T11:34:08;21;18;10
70520;PMS5003;58442;52.716;23.560;2022-12-07T11:40:39;15;15;6
70520;PMS5003;58442;52.716;23.560;2022-12-07T11:47:20;39;35;18
70520;PMS5003;58442;52.716;23.560;2022-12-07T11:49:39;18;16;10
70520;PMS5003;58442;52.716;23.560;2022-12-07T11:51:57;4;4;4
70520;PMS5003;58442;52.716;23.560;2022-12-07T11:54:11;7;7;5
70520;PMS5003;58442;52.716;23.560;2022-12-07T11:56:21;35;29;17
70520;PMS5003;58442;52.716;23.560;2022-12-07T12:00:38;25;24;13
70520;PMS5003;58442;52.716;23.560;2022-12-07T12:05:15;19;19;8
70520;PMS5003;58442;52.716;23.560;2022-12-07T12:07:26;26;20;11
70520;PMS5003;58442;52.716;23.560;2022-12-07T12:16:13;15;13;6
70520;PMS5003;58442;52.716;23.560;2022-12-07T12:20:33;15;14;9
70520;PMS5003;58442;52.716;23.560;2022-12-07T12:22:57;10;10;5
70520;PMS5003;58442;52.716;23.560;2022-12-07T12:25:35;9;9;5
70520;PMS5003;58442;52.716;23.560;2022-12-07T12:27:33;8;8;6
70520;PMS5003;58442;52.716;23.560;2022-12-07T12:29:39;11;11;8
70520;PMS5003;58442;52.716;23.560;2022-12-07T12:31:43;15;14;8
70520;PMS5003;58442;52.716;23.560;2022-12-07T12:33:57;7;7;5
70520;PMS5003;58442;52.716;23.560;2022-12-07T12:42:44;12;10;7
70520;PMS5003;58442;52.716;23.560;2022-12-07T12:45:33;16;15;8
70520;PMS5003;58442;52.716;23.560;2022-12-07T12:47:03;7;7;4
70520;PMS5003;58442;52.716;23.560;2022-12-07T12:53:40;9;9;6
70520;PMS5003;58442;52.716;23.560;2022-12-07T12:58:39;9;9;5
70520;PMS5003;58442;52.716;23.560;2022-12-07T13:04:29;10;10;5
70520;PMS5003;58442;52.716;23.560;2022-12-07T13:06:42;13;11;7
70520;PMS5003;58442;52.716;23.560;2022-12-07T13:08:44;18;18;8
70520;PMS5003;58442;52.716;23.560;2022-12-07T13:10:47;13;12;8
70520;PMS5003;58442;52.716;23.560;2022-12-07T13:13:32;11;11;7
70520;PMS5003;58442;52.716;23.560;2022-12-07T13:15:23;6;6;5
70520;PMS5003;58442;52.716;23.560;2022-12-07T13:22:01;6;6;4
70520;PMS5003;58442;52.716;23.560;2022-12-07T13:24:06;6;6;5
70520;PMS5003;58442;52.716;23.560;2022-12-07T13:26:14;7;7;5
70520;PMS5003;58442;52.716;23.560;2022-12-07T13:28:22;8;7;4
70520;PMS5003;58442;52.716;23.560;2022-12-07T13:30:28;8;8;6
70520;PMS5003;58442;52.716;23.560;2022-12-07T13:32:38;7;7;4
70520;PMS5003;58442;52.716;23.560;2022-12-07T13:34:40;16;15;8
70520;PMS5003;58442;52.716;23.560;2022-12-07T13:36:43;11;10;6
70520;PMS5003;58442;52.716;23.560;2022-12-07T13:38:52;9;9;5
70520;PMS5003;58442;52.716;23.560;2022-12-07T13:41:00;12;11;7
70520;PMS5003;58442;52.716;23.560;2022-12-07T13:43:14;8;8;5
70520;PMS5003;58442;52.716;23.560;2022-12-07T13:45:21;10;10;7
70520;PMS5003;58442;52.716;23.560;2022-12-07T13:47:49;10;9;6
70520;PMS5003;58442;52.716;23.560;2022-12-07T13:49:50;11;11;6
70520;PMS5003;58442;52.716;23.560;2022-12-07T13:51:53;7;7;4
70520;PMS5003;58442;52.716;23.560;2022-12-07T13:56:13;11;11;8
70520;PMS5003;58442;52.716;23.560;2022-12-07T13:58:16;9;8;5
70520;PMS5003;58442;52.716;23.560;2022-12-07T14:00:18;11;9;4
70520;PMS5003;58442;52.716;23.560;2022-12-07T14:04:34;11;11;6
70520;PMS5003;58442;52.716;23.560;2022-12-07T14:06:37;11;11;7
70520;PMS5003;58442;52.716;23.560;2022-12-07T14:08:49;10;9;6
70520;PMS5003;58442;52.716;23.560;2022-12-07T14:10:55;10;10;6
70520;PMS5003;58442;52.716;23.560;2022-12-07T14:13:17;17;17;9
70520;PMS5003;58442;52.716;23.560;2022-12-07T14:15:31;11;11;6
70520;PMS5003;58442;52.716;23.560;2022-12-07T14:17:34;12;12;6
70520;PMS5003;58442;52.716;23.560;2022-12-07T14:21:50;10;10;5
70520;PMS5003;58442;52.716;23.560;2022-12-07T14:24:04;14;12;6
70520;PMS5003;58442;52.716;23.560;2022-12-07T14:26:18;9;9;6
70520;PMS5003;58442;52.716;23.560;2022-12-07T14:28:29;11;11;7
70520;PMS5003;58442;52.716;23.560;2022-12-07T14:30:32;9;9;5
70520;PMS5003;58442;52.716;23.560;2022-12-07T14:32:35;14;14;6
70520;PMS5003;58442;52.716;23.560;2022-12-07T14:34:37;19;14;6
70520;PMS5003;58442;52.716;23.560;2022-12-07T14:36:39;13;12;6
70520;PMS5003;58442;52.716;23.560;2022-12-07T14:38:40;7;6;4
70520;PMS5003;58442;52.716;23.560;2022-12-07T14:40:41;11;10;4
70520;PMS5003;58442;52.716;23.560;2022-12-07T14:42:43;8;4;0
70520;PMS5003;58442;52.716;23.560;2022-12-07T14:44:54;12;12;6
70520;PMS5003;58442;52.716;23.560;2022-12-07T14:46:56;13;13;8
70520;PMS5003;58442;52.716;23.560;2022-12-07T14:48:57;11;11;6
70520;PMS5003;58442;52.716;23.560;2022-12-07T14:50:58;16;13;7
70520;PMS5003;58442;52.716;23.560;2022-12-07T14:57:29;12;12;9
70520;PMS5003;58442;52.716;23.560;2022-12-07T14:59:30;11;11;6
70520;PMS5003;58442;52.716;23.560;2022-12-07T15:01:33;13;11;6
70520;PMS5003;58442;52.716;23.560;2022-12-07T15:03:34;15;14;8
70520;PMS5003;58442;52.716;23.560;2022-12-07T15:05:38;16;13;6
70520;PMS5003;58442;52.716;23.560;2022-12-07T15:07:40;9;9;6
70520;PMS5003;58442;52.716;23.560;2022-12-07T15:09:48;10;10;7
70520;PMS5003;58442;52.716;23.560;2022-12-07T15:11:49;12;11;7
70520;PMS5003;58442;52.716;23.560;2022-12-07T15:13:50;9;9;6
70520;PMS5003;58442;52.716;23.560;2022-12-07T15:16:04;11;10;4
70520;PMS5003;58442;52.716;23.560;2022-12-07T15:18:06;9;9;6
70520;PMS5003;58442;52.716;23.560;2022-12-07T15:20:09;11;10;5
70520;PMS5003;58442;52.716;23.560;2022-12-07T15:22:13;15;13;7
70520;PMS5003;58442;52.716;23.560;2022-12-07T15:24:14;16;16;7
70520;PMS5003;58442;52.716;23.560;2022-12-07T15:26:18;16;16;8
70520;PMS5003;58442;52.716;23.560;2022-12-07T15:28:19;12;10;6
70520;PMS5003;58442;52.716;23.560;2022-12-07T15:30:20;11;11;6
70520;PMS5003;58442;52.716;23.560;2022-12-07T15:32:21;11;9;5
70520;PMS5003;58442;52.716;23.560;2022-12-07T15:34:33;12;12;5
70520;PMS5003;58442;52.716;23.560;2022-12-07T15:36:34;13;12;4
70520;PMS5003;58442;52.716;23.560;2022-12-07T15:38:36;11;10;4
70520;PMS5003;58442;52.716;23.560;2022-12-07T15:40:37;5;5;3
70520;PMS5003;58442;52.716;23.560;2022-12-07T15:42:48;12;12;6